Time;durP1;ratioP1;P1;durP2;ratioP2;P2;SDS_P1;SDS_P2;PMS_P1;PMS_P2;Temp;Humidity;BMP_temperature;BMP_pressure;BME280_temperature;BME280_humidity;BME280_pressure;Samples;Min_cycle;Max_cycle;Signal;HPM_P1;HPM_P2
2023/01/15 00:01:03;;;;;;;84.47;40.03;;;;;;;;;;4883395;29;20043;-72
2023/01/15 00:03:30;;;;;;;94.97;43.55;;;;;;;;;;4900252;29;20036;-72
2023/01/15 00:06:00;;;;;;;107.47;46.95;;;;;;;;;;4885627;29;20048;-72
2023/01/15 00:08:26;;;;;;;100.78;43.65;;;;;;;;;;4895561;29;20040;-72
2023/01/15 00:10:52;;;;;;;92.13;42.22;;;;;;;;;;4899291;29;20090;-72
2023/01/15 00:13:17;;;;;;;92.68;44.30;;;;;;;;;;4905004;29;20041;-72
2023/01/15 00:15:43;;;;;;;88.35;40.50;;;;;;;;;;4898878;29;20052;-74
2023/01/15 00:18:09;;;;;;;82.43;38.33;;;;;;;;;;4883287;29;20445;-71
2023/01/15 00:20:35;;;;;;;75.82;38.22;;;;;;;;;;4912500;29;20457;-70
2023/01/15 00:23:00;;;;;;;88.65;42.85;;;;;;;;;;4899371;29;20048;-70
2023/01/15 00:28:13;;;;;;;87.30;42.22;;;;;;;;;;4899541;29;20044;-72
2023/01/15 00:30:41;;;;;;;84.60;42.85;;;;;;;;;;4899081;29;20028;-70
2023/01/15 00:33:08;;;;;;;82.10;43.13;;;;;;;;;;4899480;29;20115;-71
2023/01/15 00:35:33;;;;;;;79.88;39.85;;;;;;;;;;4897571;29;20132;-70
2023/01/15 00:38:00;;;;;;;67.10;35.78;;;;;;;;;;4882507;29;20089;-70
2023/01/15 00:40:26;;;;;;;55.55;30.50;;;;;;;;;;4901776;29;20024;-72
2023/01/15 00:42:51;;;;;;;54.35;28.00;;;;;;;;;;4881314;29;20525;-72
2023/01/15 00:45:17;;;;;;;49.47;25.63;;;;;;;;;;4897737;29;20055;-72
2023/01/15 00:47:44;;;;;;;39.47;24.15;;;;;;;;;;4881396;29;20684;-72
2023/01/15 00:50:12;;;;;;;40.92;22.80;;;;;;;;;;4881739;29;20072;-72
2023/01/15 00:52:38;;;;;;;42.47;22.30;;;;;;;;;;4898095;29;20092;-71
2023/01/15 00:55:05;;;;;;;47.13;25.10;;;;;;;;;;4898446;29;20032;-71
2023/01/15 00:57:31;;;;;;;56.88;30.33;;;;;;;;;;4896199;29;20060;-71
2023/01/15 00:59:57;;;;;;;55.90;27.77;;;;;;;;;;4897088;29;20123;-71
2023/01/15 01:02:23;;;;;;;53.58;26.88;;;;;;;;;;4880985;29;20124;-71
2023/01/15 01:04:49;;;;;;;57.92;29.73;;;;;;;;;;4898268;29;20152;-71
2023/01/15 01:07:15;;;;;;;56.33;30.40;;;;;;;;;;4898661;29;20059;-71
2023/01/15 01:09:41;;;;;;;66.47;32.17;;;;;;;;;;4898461;29;20529;-71
2023/01/15 01:12:07;;;;;;;66.50;32.17;;;;;;;;;;4880003;29;20041;-73
2023/01/15 01:14:33;;;;;;;56.95;31.20;;;;;;;;;;4879973;29;20021;-71
2023/01/15 01:16:59;;;;;;;55.97;30.95;;;;;;;;;;4880619;29;20048;-72
2023/01/15 01:19:25;;;;;;;64.32;32.63;;;;;;;;;;4881869;29;20521;-72
2023/01/15 01:21:51;;;;;;;50.00;28.30;;;;;;;;;;4898221;29;20160;-72
2023/01/15 01:24:22;;;;;;;47.88;26.48;;;;;;;;;;4898137;29;20072;-72
2023/01/15 01:26:49;;;;;;;45.25;24.83;;;;;;;;;;4896729;29;20037;-70
2023/01/15 01:29:18;;;;;;;56.95;28.77;;;;;;;;;;4879685;29;20116;-73
2023/01/15 01:31:44;;;;;;;46.97;26.55;;;;;;;;;;4897899;29;20036;-71
2023/01/15 01:34:11;;;;;;;44.17;24.42;;;;;;;;;;4898534;29;20040;-71
2023/01/15 01:36:39;;;;;;;42.50;24.02;;;;;;;;;;4897794;29;20489;-71
2023/01/15 01:39:06;;;;;;;52.63;26.33;;;;;;;;;;4880477;29;20029;-71
2023/01/15 01:41:33;;;;;;;47.17;25.13;;;;;;;;;;4896863;29;20402;-72
2023/01/15 01:44:26;;;;;;;42.00;23.48;;;;;;;;;;4897270;29;20036;-71
2023/01/15 01:46:52;;;;;;;44.88;22.55;;;;;;;;;;4881106;29;20125;-71
2023/01/15 01:49:18;;;;;;;41.60;22.02;;;;;;;;;;4880619;29;20032;-71
2023/01/15 01:51:49;;;;;;;37.75;21.88;;;;;;;;;;4896731;29;20103;-71
2023/01/15 01:54:17;;;;;;;40.17;22.65;;;;;;;;;;4896593;29;20509;-71
2023/01/15 01:56:43;;;;;;;39.65;21.55;;;;;;;;;;4881348;29;20028;-71
2023/01/15 01:59:10;;;;;;;37.42;21.30;;;;;;;;;;4881340;29;20032;-71
2023/01/15 02:01:38;;;;;;;36.17;21.02;;;;;;;;;;4889124;29;20108;-71
2023/01/15 02:04:09;;;;;;;36.47;21.05;;;;;;;;;;4897982;29;20474;-71
2023/01/15 02:06:37;;;;;;;39.97;23.02;;;;;;;;;;4898183;29;20056;-71
2023/01/15 02:09:04;;;;;;;43.67;23.17;;;;;;;;;;4881095;29;20459;-71
2023/01/15 02:11:33;;;;;;;40.85;23.65;;;;;;;;;;4897762;29;20088;-71
2023/01/15 02:14:08;;;;;;;43.85;24.80;;;;;;;;;;4888705;29;20119;-70
2023/01/15 02:16:40;;;;;;;49.25;25.60;;;;;;;;;;4881111;29;20455;-71
2023/01/15 02:19:31;;;;;;;45.42;25.23;;;;;;;;;;4880325;29;20032;-70
2023/01/15 02:22:19;;;;;;;40.65;23.00;;;;;;;;;;4896221;29;20043;-72
2023/01/15 02:25:31;;;;;;;40.65;22.35;;;;;;;;;;4896255;29;20070;-70
2023/01/15 02:28:03;;;;;;;39.45;22.63;;;;;;;;;;4895741;29;20037;-72
2023/01/15 02:30:55;;;;;;;36.42;20.10;;;;;;;;;;4880827;29;20040;-71
2023/01/15 02:33:28;;;;;;;40.65;22.05;;;;;;;;;;4902917;29;20072;-72
2023/01/15 02:35:59;;;;;;;37.83;19.98;;;;;;;;;;4896265;29;20123;-71
2023/01/15 02:38:34;;;;;;;40.38;21.77;;;;;;;;;;4896270;29;20391;-71
2023/01/15 02:41:04;;;;;;;34.63;19.67;;;;;;;;;;4895996;29;20068;-71
2023/01/15 02:43:35;;;;;;;30.83;17.65;;;;;;;;;;4872952;29;20371;-71
2023/01/15 02:46:04;;;;;;;25.45;14.57;;;;;;;;;;4880540;29;20039;-71
2023/01/15 02:48:33;;;;;;;24.10;14.00;;;;;;;;;;4888465;29;20024;-71
2023/01/15 02:51:10;;;;;;;23.27;13.15;;;;;;;;;;4878887;29;20040;-71
2023/01/15 02:53:40;;;;;;;22.92;12.95;;;;;;;;;;4885118;29;20115;-71
2023/01/15 02:56:12;;;;;;;27.13;14.25;;;;;;;;;;4865529;29;20073;-71
2023/01/15 02:58:48;;;;;;;21.52;13.02;;;;;;;;;;4896004;29;20040;-71
2023/01/15 03:01:21;;;;;;;27.90;15.25;;;;;;;;;;4888354;29;20032;-71
2023/01/15 03:04:14;;;;;;;29.10;15.35;;;;;;;;;;4897251;29;20032;-71
2023/01/15 03:06:54;;;;;;;29.55;16.17;;;;;;;;;;4876533;29;20554;-70
2023/01/15 03:09:21;;;;;;;30.33;16.63;;;;;;;;;;4869507;29;20499;-71
2023/01/15 03:12:05;;;;;;;27.30;14.80;;;;;;;;;;4861480;29;20028;-70
2023/01/15 03:15:01;;;;;;;24.45;13.98;;;;;;;;;;4857332;29;20053;-72
2023/01/15 03:17:50;;;;;;;27.27;14.07;;;;;;;;;;4891129;29;20029;-70
2023/01/15 03:20:22;;;;;;;29.42;14.27;;;;;;;;;;4872944;29;20028;-72
2023/01/15 03:22:52;;;;;;;33.60;14.88;;;;;;;;;;4880373;29;20036;-71
2023/01/15 03:25:24;;;;;;;32.15;14.65;;;;;;;;;;4880129;29;20032;-71
2023/01/15 03:27:55;;;;;;;30.95;14.70;;;;;;;;;;4883508;29;20064;-71
2023/01/15 03:30:23;;;;;;;26.55;14.77;;;;;;;;;;4868412;29;20064;-71
2023/01/15 03:32:50;;;;;;;26.58;14.85;;;;;;;;;;4883627;29;20060;-72
2023/01/15 03:35:44;;;;;;;28.23;14.85;;;;;;;;;;4883724;29;20060;-71
2023/01/15 03:38:16;;;;;;;28.52;14.80;;;;;;;;;;4899356;29;20041;-72
2023/01/15 03:41:20;;;;;;;31.08;16.65;;;;;;;;;;4900556;29;20088;-73
2023/01/15 03:43:58;;;;;;;28.90;15.80;;;;;;;;;;4896288;29;20037;-73
2023/01/15 03:46:23;;;;;;;;;;;;;;;;;;4901061;29;20084;-72
2023/01/15 03:48:57;;;;;;;27.95;14.10;;;;;;;;;;4900523;29;19919;-71
2023/01/15 03:51:35;;;;;;;25.30;13.38;;;;;;;;;;4876890;29;20107;-71
2023/01/15 03:54:07;;;;;;;24.00;13.13;;;;;;;;;;4875918;29;20040;-70
2023/01/15 03:56:55;;;;;;;24.52;14.32;;;;;;;;;;4899087;29;20032;-72
2023/01/15 03:59:31;;;;;;;24.35;13.68;;;;;;;;;;4892413;29;20029;-71
2023/01/15 04:02:04;;;;;;;25.23;12.68;;;;;;;;;;4892250;29;20045;-71
2023/01/15 04:04:31;;;;;;;28.45;13.73;;;;;;;;;;4901017;29;20032;-71
2023/01/15 04:07:01;;;;;;;29.38;13.02;;;;;;;;;;4892128;29;20031;-71
2023/01/15 04:09:27;;;;;;;23.67;12.60;;;;;;;;;;4868971;29;20044;-72
2023/01/15 04:12:00;;;;;;;26.42;13.40;;;;;;;;;;4876450;29;20093;-72
2023/01/15 04:14:29;;;;;;;25.13;13.00;;;;;;;;;;4892478;29;20032;-72
2023/01/15 04:16:56;;;;;;;20.65;12.50;;;;;;;;;;4884772;29;20032;-72
2023/01/15 04:19:24;;;;;;;22.55;12.55;;;;;;;;;;4911490;29;20030;-72
2023/01/15 04:22:02;;;;;;;26.55;14.35;;;;;;;;;;4915096;29;20021;-71
2023/01/15 04:24:28;;;;;;;25.17;13.45;;;;;;;;;;4915084;29;20033;-71
2023/01/15 04:26:53;;;;;;;21.08;12.45;;;;;;;;;;4879814;29;20479;-72
2023/01/15 04:29:19;;;;;;;22.98;13.77;;;;;;;;;;4886444;29;20075;-70
2023/01/15 04:31:45;;;;;;;25.40;13.30;;;;;;;;;;4900547;29;20017;-70
2023/01/15 04:34:10;;;;;;;27.00;14.60;;;;;;;;;;4900583;29;20033;-73
2023/01/15 04:36:36;;;;;;;28.27;16.15;;;;;;;;;;4900446;29;20079;-71
2023/01/15 04:39:03;;;;;;;31.42;16.50;;;;;;;;;;4883545;29;20111;-71
2023/01/15 04:44:14;;;;;;;37.72;19.05;;;;;;;;;;4890366;29;20032;-71
2023/01/15 04:46:42;;;;;;;34.45;17.83;;;;;;;;;;4865128;29;20526;-71
2023/01/15 04:49:15;;;;;;;33.42;19.00;;;;;;;;;;4896511;29;20037;-70
2023/01/15 04:51:41;;;;;;;33.25;18.25;;;;;;;;;;4894346;29;20044;-70
2023/01/15 04:54:08;;;;;;;30.73;17.52;;;;;;;;;;4891507;29;20033;-71
2023/01/15 04:56:40;;;;;;;31.42;17.83;;;;;;;;;;4898101;29;20029;-71
2023/01/15 04:59:05;;;;;;;34.22;18.67;;;;;;;;;;4882447;29;20603;-71
2023/01/15 05:01:31;;;;;;;35.70;19.27;;;;;;;;;;4899138;29;20103;-71
2023/01/15 05:03:57;;;;;;;32.85;19.17;;;;;;;;;;4882164;29;20123;-72
2023/01/15 05:06:24;;;;;;;30.63;17.80;;;;;;;;;;4898982;29;20065;-71
2023/01/15 05:08:50;;;;;;;32.53;17.70;;;;;;;;;;4891408;29;20032;-71
2023/01/15 05:11:15;;;;;;;30.85;16.83;;;;;;;;;;4896228;29;20498;-71
2023/01/15 05:13:42;;;;;;;31.83;15.52;;;;;;;;;;4893106;29;20036;-71
2023/01/15 05:16:19;;;;;;;29.23;14.90;;;;;;;;;;4890015;29;20036;-72
2023/01/15 05:18:46;;;;;;;27.25;15.45;;;;;;;;;;4891441;29;20049;-73
2023/01/15 05:21:27;;;;;;;28.85;15.18;;;;;;;;;;4881299;29;20024;-70
2023/01/15 05:23:56;;;;;;;27.80;14.55;;;;;;;;;;4898639;29;20055;-71
2023/01/15 05:26:22;;;;;;;26.25;14.60;;;;;;;;;;4897086;29;20036;-71
2023/01/15 05:28:49;;;;;;;26.63;14.10;;;;;;;;;;4890593;29;20029;-72
2023/01/15 05:31:17;;;;;;;25.30;13.70;;;;;;;;;;4898052;29;20035;-72
2023/01/15 05:33:46;;;;;;;25.25;13.90;;;;;;;;;;4898784;29;20033;-72
2023/01/15 05:36:14;;;;;;;27.58;14.75;;;;;;;;;;4898737;29;20021;-71
2023/01/15 05:38:40;;;;;;;26.52;14.13;;;;;;;;;;4898839;29;20043;-73
2023/01/15 05:43:59;;;;;;;27.35;14.43;;;;;;;;;;4898192;29;20069;-71
2023/01/15 05:46:25;;;;;;;38.95;15.35;;;;;;;;;;4898409;29;20492;-71
2023/01/15 05:48:51;;;;;;;30.35;15.52;;;;;;;;;;4880494;29;20085;-71
2023/01/15 05:51:17;;;;;;;33.70;16.60;;;;;;;;;;4891621;29;20132;-73
2023/01/15 05:53:42;;;;;;;29.35;16.15;;;;;;;;;;4894332;29;20029;-73
2023/01/15 05:56:08;;;;;;;32.15;16.60;;;;;;;;;;4895293;29;20056;-74
2023/01/15 05:58:34;;;;;;;29.15;16.42;;;;;;;;;;4892538;29;20127;-74
2023/01/15 06:01:06;;;;;;;36.92;16.55;;;;;;;;;;4893995;29;20112;-75
2023/01/15 06:03:31;;;;;;;31.27;17.48;;;;;;;;;;4880851;29;20132;-72
2023/01/15 06:05:57;;;;;;;33.83;17.50;;;;;;;;;;4897328;29;20099;-74
2023/01/15 06:08:23;;;;;;;33.22;18.08;;;;;;;;;;4897609;29;20029;-73
2023/01/15 06:10:49;;;;;;;35.70;17.80;;;;;;;;;;4897323;29;20099;-74
2023/01/15 06:13:15;;;;;;;44.65;18.45;;;;;;;;;;4897640;29;20472;-73
2023/01/15 06:15:41;;;;;;;37.20;19.30;;;;;;;;;;4881239;29;20049;-72
2023/01/15 06:18:08;;;;;;;36.13;19.67;;;;;;;;;;4888827;29;20040;-73
2023/01/15 06:20:41;;;;;;;34.97;19.33;;;;;;;;;;4892931;29;20444;-73
2023/01/15 06:23:07;;;;;;;30.52;16.65;;;;;;;;;;4887913;29;20064;-72
2023/01/15 06:25:35;;;;;;;28.35;17.63;;;;;;;;;;4897062;29;20131;-72
2023/01/15 06:28:02;;;;;;;34.83;17.20;;;;;;;;;;4881406;29;20037;-73
2023/01/15 06:30:28;;;;;;;27.25;15.70;;;;;;;;;;4885975;29;20029;-73
2023/01/15 06:32:54;;;;;;;25.25;15.32;;;;;;;;;;4893909;29;20040;-73
2023/01/15 06:35:19;;;;;;;31.15;15.32;;;;;;;;;;4880719;29;20033;-72
2023/01/15 06:37:45;;;;;;;31.92;18.75;;;;;;;;;;4889773;29;20033;-73
2023/01/15 06:40:11;;;;;;;40.25;20.35;;;;;;;;;;4865030;29;20189;-72
2023/01/15 06:48:06;;;;;;;33.53;19.25;;;;;;;;;;4894660;29;20628;-72
2023/01/15 06:50:32;;;;;;;34.15;18.38;;;;;;;;;;4892508;29;20021;-72
2023/01/15 06:52:58;;;;;;;30.00;18.25;;;;;;;;;;4896328;29;20044;-72
2023/01/15 06:55:23;;;;;;;33.88;19.80;;;;;;;;;;4896590;29;20483;-73
2023/01/15 06:57:49;;;;;;;33.60;18.95;;;;;;;;;;4873933;29;20075;-74
2023/01/15 07:00:15;;;;;;;35.38;21.33;;;;;;;;;;4892994;29;20028;-73
2023/01/15 07:02:41;;;;;;;32.17;20.83;;;;;;;;;;4896687;29;20049;-73
2023/01/15 07:05:07;;;;;;;40.00;21.95;;;;;;;;;;4870109;29;20028;-72
2023/01/15 07:07:33;;;;;;;57.28;25.00;;;;;;;;;;4892500;29;20098;-72
2023/01/15 07:09:59;;;;;;;36.80;20.45;;;;;;;;;;4890287;29;20024;-72
2023/01/15 07:12:25;;;;;;;43.63;21.92;;;;;;;;;;4894360;29;20031;-74
2023/01/15 07:14:51;;;;;;;38.97;24.42;;;;;;;;;;4895041;29;20020;-74
2023/01/15 07:17:17;;;;;;;49.97;27.13;;;;;;;;;;4903163;29;20036;-74
2023/01/15 07:19:42;;;;;;;55.35;27.90;;;;;;;;;;4896470;29;20377;-73
2023/01/15 07:22:09;;;;;;;51.38;29.23;;;;;;;;;;4895706;29;20502;-73
2023/01/15 07:24:34;;;;;;;62.40;32.90;;;;;;;;;;4896415;29;20032;-75
2023/01/15 07:27:00;;;;;;;56.05;31.88;;;;;;;;;;4879870;29;20096;-73
2023/01/15 07:29:26;;;;;;;58.97;32.47;;;;;;;;;;4884927;29;20085;-73
2023/01/15 07:31:52;;;;;;;53.50;32.38;;;;;;;;;;4892449;29;20040;-73
2023/01/15 07:34:18;;;;;;;51.72;31.27;;;;;;;;;;4889206;29;20060;-72
2023/01/15 07:36:44;;;;;;;51.58;30.52;;;;;;;;;;4883442;29;20067;-73
2023/01/15 07:39:10;;;;;;;52.90;30.80;;;;;;;;;;4878341;29;20040;-73
2023/01/15 07:50:19;;;;;;;41.47;25.25;;;;;;;;;;4879732;29;20048;-74
2023/01/15 07:52:45;;;;;;;41.67;26.13;;;;;;;;;;4896880;29;20495;-74
2023/01/15 07:55:12;;;;;;;44.30;26.52;;;;;;;;;;4895858;29;20035;-74
2023/01/15 07:57:39;;;;;;;45.08;26.08;;;;;;;;;;4880429;29;20047;-73
2023/01/15 08:00:07;;;;;;;46.75;25.55;;;;;;;;;;4896904;29;20032;-75
2023/01/15 08:02:38;;;;;;;46.28;25.50;;;;;;;;;;4888923;29;20049;-74
2023/01/15 08:05:04;;;;;;;41.80;24.98;;;;;;;;;;4897160;29;20045;-72
2023/01/15 08:07:30;;;;;;;38.00;21.98;;;;;;;;;;4896644;29;20035;-74
2023/01/15 08:09:55;;;;;;;47.20;25.60;;;;;;;;;;4896016;29;20029;-73
2023/01/15 08:15:13;;;;;;;39.58;21.90;;;;;;;;;;4899920;29;20044;-72
2023/01/15 08:17:41;;;;;;;32.00;18.85;;;;;;;;;;4900058;29;20032;-73
2023/01/15 08:20:16;;;;;;;32.90;18.98;;;;;;;;;;4898167;29;20025;-73
2023/01/15 08:22:43;;;;;;;30.70;20.08;;;;;;;;;;4899234;29;20112;-73
2023/01/15 08:25:11;;;;;;;32.10;20.15;;;;;;;;;;4882400;29;20111;-72
2023/01/15 08:27:37;;;;;;;34.95;20.95;;;;;;;;;;4895084;29;20032;-72
2023/01/15 08:30:10;;;;;;;35.33;21.80;;;;;;;;;;4896104;29;20036;-72
2023/01/15 08:32:36;;;;;;;36.92;22.52;;;;;;;;;;4892612;29;20035;-72
2023/01/15 08:35:01;;;;;;;50.80;24.38;;;;;;;;;;4899638;29;20386;-71
2023/01/15 08:37:27;;;;;;;78.45;34.22;;;;;;;;;;4884204;29;20096;-72
2023/01/15 08:39:53;;;;;;;32.85;20.55;;;;;;;;;;4899379;29;20020;-72
2023/01/15 08:42:19;;;;;;;31.98;17.95;;;;;;;;;;4888970;29;20044;-72
2023/01/15 08:44:46;;;;;;;28.20;17.75;;;;;;;;;;4897614;29;20050;-72
2023/01/15 08:47:13;;;;;;;63.47;28.30;;;;;;;;;;4880055;29;20134;-71
2023/01/15 08:49:39;;;;;;;32.45;18.02;;;;;;;;;;4891974;29;20037;-72
2023/01/15 08:52:06;;;;;;;32.80;16.45;;;;;;;;;;4884054;29;20067;-73
2023/01/15 08:54:32;;;;;;;27.83;16.63;;;;;;;;;;4875834;29;20144;-72
2023/01/15 08:56:58;;;;;;;27.83;16.95;;;;;;;;;;4895114;29;20123;-72
2023/01/15 08:59:24;;;;;;;24.75;15.40;;;;;;;;;;4904923;29;20021;-70
2023/01/15 09:01:50;;;;;;;28.70;15.60;;;;;;;;;;4910153;29;20037;-73
2023/01/15 09:04:19;;;;;;;23.85;14.45;;;;;;;;;;4911220;29;20297;-72
2023/01/15 09:06:45;;;;;;;23.15;13.98;;;;;;;;;;4908733;29;20111;-72
2023/01/15 09:09:12;;;;;;;31.17;16.92;;;;;;;;;;4898964;29;20115;-72
2023/01/15 09:11:41;;;;;;;30.77;15.50;;;;;;;;;;4897573;29;20067;-72
2023/01/15 09:14:08;;;;;;;25.73;14.57;;;;;;;;;;4898565;29;20032;-74
2023/01/15 09:16:35;;;;;;;23.95;14.98;;;;;;;;;;4899435;29;20418;-71
2023/01/15 09:19:03;;;;;;;23.73;13.77;;;;;;;;;;4889244;29;20032;-72
2023/01/15 09:21:28;;;;;;;20.52;12.10;;;;;;;;;;4897991;29;20039;-74
2023/01/15 09:23:54;;;;;;;20.30;12.25;;;;;;;;;;4897570;29;20036;-74
2023/01/15 09:26:40;;;;;;;18.55;12.05;;;;;;;;;;4898594;29;20044;-74
2023/01/15 09:29:07;;;;;;;23.02;11.95;;;;;;;;;;4880343;29;20120;-72
2023/01/15 09:31:33;;;;;;;17.63;11.35;;;;;;;;;;4876970;29;20021;-72
2023/01/15 09:33:59;;;;;;;19.73;11.80;;;;;;;;;;4895855;29;20107;-75
2023/01/15 09:36:32;;;;;;;17.25;10.55;;;;;;;;;;4890260;29;20494;-73
2023/01/15 09:38:59;;;;;;;21.10;11.55;;;;;;;;;;4892818;29;20103;-74
2023/01/15 09:42:06;;;;;;;15.82;10.05;;;;;;;;;;4886021;29;20075;-75
2023/01/15 09:44:38;;;;;;;13.88;9.32;;;;;;;;;;4896436;29;20092;-73
2023/01/15 09:47:22;;;;;;;18.30;10.32;;;;;;;;;;4904171;29;20036;-74
2023/01/15 09:50:19;;;;;;;15.65;9.15;;;;;;;;;;4894861;29;20032;-73
2023/01/15 09:52:45;;;;;;;16.65;9.52;;;;;;;;;;4896884;29;20544;-74
2023/01/15 09:55:19;;;;;;;16.30;8.52;;;;;;;;;;4896259;29;20103;-74
2023/01/15 09:57:49;;;;;;;16.42;9.73;;;;;;;;;;4895987;29;20041;-77
2023/01/15 10:00:23;;;;;;;19.45;10.68;;;;;;;;;;4894835;29;20487;-75
2023/01/15 10:03:24;;;;;;;17.45;9.82;;;;;;;;;;4896478;29;20121;-75
2023/01/15 10:06:20;;;;;;;15.90;9.10;;;;;;;;;;4896196;29;20028;-74
2023/01/15 10:08:49;;;;;;;13.98;8.95;;;;;;;;;;4897493;29;20040;-74
2023/01/15 10:11:14;;;;;;;14.68;8.90;;;;;;;;;;4881089;29;20031;-74
2023/01/15 10:13:45;;;;;;;14.23;8.77;;;;;;;;;;4897775;29;20036;-73
2023/01/15 10:16:18;;;;;;;17.85;10.07;;;;;;;;;;4897814;29;20052;-74
2023/01/15 10:18:44;;;;;;;17.98;10.68;;;;;;;;;;4898105;29;20028;-74
2023/01/15 10:21:46;;;;;;;16.00;9.70;;;;;;;;;;4897577;29;20398;-77
2023/01/15 10:24:29;;;;;;;18.48;10.40;;;;;;;;;;4885709;29;20048;-78
2023/01/15 10:26:57;;;;;;;15.10;9.00;;;;;;;;;;4897888;29;20036;-76
2023/01/15 10:29:48;;;;;;;13.88;8.73;;;;;;;;;;4896402;29;20024;-75
2023/01/15 10:32:17;;;;;;;14.52;9.30;;;;;;;;;;4897700;29;20041;-74
2023/01/15 10:35:28;;;;;;;19.52;10.18;;;;;;;;;;4896505;29;20498;-76
2023/01/15 10:38:13;;;;;;;15.70;9.65;;;;;;;;;;4889183;29;20495;-75
2023/01/15 10:40:55;;;;;;;15.38;9.90;;;;;;;;;;4897527;29;20068;-76
2023/01/15 10:43:47;;;;;;;16.13;10.35;;;;;;;;;;4881355;29;20036;-76
2023/01/15 10:46:16;;;;;;;16.75;10.57;;;;;;;;;;4882948;29;20028;-74
2023/01/15 10:48:47;;;;;;;15.45;9.85;;;;;;;;;;4882364;29;20036;-75
2023/01/15 10:51:43;;;;;;;15.23;10.23;;;;;;;;;;4900213;29;20479;-75
2023/01/15 10:54:30;;;;;;;18.98;10.80;;;;;;;;;;4887958;29;20051;-74
2023/01/15 10:57:10;;;;;;;19.73;11.00;;;;;;;;;;4914848;29;20051;-75
2023/01/15 11:00:00;;;;;;;32.72;18.45;;;;;;;;;;4890575;29;20168;-74
2023/01/15 11:02:38;;;;;;;17.77;9.77;;;;;;;;;;4878513;29;20032;-75
2023/01/15 11:05:05;;;;;;;16.85;10.60;;;;;;;;;;4897056;29;20028;-75
2023/01/15 11:07:41;;;;;;;14.82;8.52;;;;;;;;;;4893766;29;20108;-74
2023/01/15 11:10:15;;;;;;;17.08;10.63;;;;;;;;;;4892218;29;20808;-73
2023/01/15 11:21:19;;;;;;;16.67;10.40;;;;;;;;;;4894971;29;20040;-74
2023/01/15 11:23:46;;;;;;;16.88;10.05;;;;;;;;;;4864446;29;20537;-72
2023/01/15 11:26:21;;;;;;;17.42;10.77;;;;;;;;;;4896622;29;20032;-75
2023/01/15 11:28:47;;;;;;;18.10;11.20;;;;;;;;;;4891448;29;20041;-74
2023/01/15 11:31:15;;;;;;;16.13;9.77;;;;;;;;;;4893217;29;20112;-73
2023/01/15 11:34:01;;;;;;;18.17;11.00;;;;;;;;;;4895268;29;20037;-74
2023/01/15 11:36:29;;;;;;;21.63;11.40;;;;;;;;;;4895163;29;20113;-73
2023/01/15 11:38:55;;;;;;;23.40;11.77;;;;;;;;;;4878119;29;20025;-74
2023/01/15 11:52:45;;;;;;;14.05;8.32;;;;;;;;;;4865255;29;20455;-76
2023/01/15 11:55:14;;;;;;;15.82;8.98;;;;;;;;;;4869154;29;20060;-74
2023/01/15 11:57:41;;;;;;;13.73;8.45;;;;;;;;;;4861630;29;20135;-74
2023/01/15 12:00:26;;;;;;;11.50;7.60;;;;;;;;;;4859798;29;20073;-75
2023/01/15 12:03:01;;;;;;;11.73;8.15;;;;;;;;;;4851773;29;20052;-74
2023/01/15 12:05:34;;;;;;;13.70;8.35;;;;;;;;;;4861169;29;20504;-76
2023/01/15 12:08:33;;;;;;;13.07;7.30;;;;;;;;;;4865471;29;20080;-79
2023/01/15 12:11:04;;;;;;;17.23;10.07;;;;;;;;;;4853223;29;20049;-76
2023/01/15 12:13:51;;;;;;;20.58;12.40;;;;;;;;;;4859606;29;20037;-74
2023/01/15 12:16:41;;;;;;;21.02;12.35;;;;;;;;;;4859824;29;20492;-75
2023/01/15 12:19:06;;;;;;;55.25;29.48;;;;;;;;;;4862891;29;20045;-76
2023/01/15 12:21:57;;;;;;;24.15;14.27;;;;;;;;;;4862595;29;20131;-77
2023/01/15 12:24:38;;;;;;;21.67;12.20;;;;;;;;;;4901053;29;20024;-75
2023/01/15 12:27:17;;;;;;;18.27;10.68;;;;;;;;;;4898271;29;20036;-74
2023/01/15 12:29:55;;;;;;;17.30;10.90;;;;;;;;;;4892853;29;20051;-74
2023/01/15 12:32:25;;;;;;;19.63;11.55;;;;;;;;;;4882561;29;20068;-73
2023/01/15 12:35:05;;;;;;;18.00;10.98;;;;;;;;;;4897943;29;20040;-77
2023/01/15 12:37:42;;;;;;;20.40;11.55;;;;;;;;;;4899083;29;20112;-74
2023/01/15 12:40:25;;;;;;;18.88;11.48;;;;;;;;;;4894815;29;20048;-76
2023/01/15 12:45:44;;;;;;;19.05;10.70;;;;;;;;;;4898061;29;20072;-74
2023/01/15 12:48:16;;;;;;;19.92;11.90;;;;;;;;;;4882160;29;20079;-74
2023/01/15 12:51:03;;;;;;;26.10;14.93;;;;;;;;;;4887808;29;20033;-75
2023/01/15 12:53:44;;;;;;;16.25;10.38;;;;;;;;;;4880850;29;20037;-73
2023/01/15 12:56:27;;;;;;;18.00;10.68;;;;;;;;;;4897609;29;20068;-75
2023/01/15 12:59:30;;;;;;;14.13;8.85;;;;;;;;;;4861478;29;20550;-74
2023/01/15 13:02:24;;;;;;;32.30;20.58;;;;;;;;;;4879670;29;20064;-74
2023/01/15 13:05:04;;;;;;;18.88;10.57;;;;;;;;;;4872528;29;20045;-75
2023/01/15 13:07:42;;;;;;;19.10;11.02;;;;;;;;;;4863910;29;20141;-74
2023/01/15 13:10:33;;;;;;;16.77;10.02;;;;;;;;;;4880581;29;20045;-76
2023/01/15 13:13:29;;;;;;;21.38;11.63;;;;;;;;;;4863794;29;20065;-75
2023/01/15 13:15:55;;;;;;;15.65;9.55;;;;;;;;;;4876045;29;20041;-74
2023/01/15 13:18:43;;;;;;;14.75;9.70;;;;;;;;;;4878908;29;20080;-74
2023/01/15 13:21:13;;;;;;;16.23;9.90;;;;;;;;;;4880308;29;20041;-75
2023/01/15 13:24:12;;;;;;;28.55;16.00;;;;;;;;;;4880437;29;20075;-75
2023/01/15 13:26:56;;;;;;;20.92;11.50;;;;;;;;;;4880971;29;20036;-73
2023/01/15 13:29:32;;;;;;;13.48;8.38;;;;;;;;;;4879649;29;20119;-75
2023/01/15 13:32:13;;;;;;;15.82;9.15;;;;;;;;;;4868380;29;20144;-76
2023/01/15 13:35:04;;;;;;;14.93;8.93;;;;;;;;;;4908939;29;20073;-74
2023/01/15 13:37:34;;;;;;;19.98;11.65;;;;;;;;;;4889795;29;20040;-73
2023/01/15 13:40:33;;;;;;;16.00;9.45;;;;;;;;;;4902299;29;20506;-74
2023/01/15 13:43:00;;;;;;;12.27;7.78;;;;;;;;;;4896453;29;20108;-75
2023/01/15 13:45:37;;;;;;;12.15;7.43;;;;;;;;;;4890985;29;20081;-75
2023/01/15 13:48:07;;;;;;;10.52;6.20;;;;;;;;;;4885787;29;20049;-75
2023/01/15 13:50:41;;;;;;;12.70;7.22;;;;;;;;;;4895733;29;20047;-76
2023/01/15 13:53:24;;;;;;;12.52;8.20;;;;;;;;;;4883890;29;20036;-75
2023/01/15 13:55:54;;;;;;;14.50;7.47;;;;;;;;;;4916902;29;20096;-74
2023/01/15 13:58:29;;;;;;;13.35;7.82;;;;;;;;;;4916411;29;20259;-75
2023/01/15 14:01:07;;;;;;;15.75;7.95;;;;;;;;;;4917385;29;20106;-75
2023/01/15 14:03:36;;;;;;;16.20;8.25;;;;;;;;;;4917433;29;20028;-77
2023/01/15 14:06:05;;;;;;;17.33;7.75;;;;;;;;;;4917841;29;20092;-75
2023/01/15 14:08:42;;;;;;;12.70;7.32;;;;;;;;;;4902327;29;20061;-73
2023/01/15 14:11:36;;;;;;;11.05;7.28;;;;;;;;;;4886405;29;20040;-74
2023/01/15 14:14:01;;;;;;;13.18;7.72;;;;;;;;;;4879491;29;20385;-72
2023/01/15 14:16:52;;;;;;;12.05;7.47;;;;;;;;;;4879050;29;20064;-75
2023/01/15 14:19:46;;;;;;;12.75;8.25;;;;;;;;;;4879955;29;20120;-75
2023/01/15 14:22:39;;;;;;;13.27;7.82;;;;;;;;;;4878596;29;20487;-76
2023/01/15 14:25:09;;;;;;;12.27;7.60;;;;;;;;;;4878914;29;20048;-76
2023/01/15 14:27:43;;;;;;;14.23;8.45;;;;;;;;;;4878893;29;20132;-75
2023/01/15 14:30:59;;;;;;;12.90;8.30;;;;;;;;;;4877510;29;20040;-76
2023/01/15 14:33:44;;;;;;;34.60;17.50;;;;;;;;;;4882275;29;20037;-76
2023/01/15 14:36:19;;;;;;;15.82;8.90;;;;;;;;;;4885785;29;20040;-75
2023/01/15 14:38:58;;;;;;;18.00;11.50;;;;;;;;;;4897080;29;20036;-74
2023/01/15 14:41:30;;;;;;;16.83;11.02;;;;;;;;;;4895472;29;20041;-75
2023/01/15 14:43:59;;;;;;;18.40;9.48;;;;;;;;;;4896665;29;20494;-74
2023/01/15 14:46:40;;;;;;;18.75;10.30;;;;;;;;;;4897124;29;20047;-74
2023/01/15 14:49:42;;;;;;;17.50;11.40;;;;;;;;;;4885712;29;20076;-75
2023/01/15 14:52:08;;;;;;;18.00;11.38;;;;;;;;;;4879228;29;20121;-75
2023/01/15 14:54:37;;;;;;;16.88;10.10;;;;;;;;;;4877161;29;20443;-75
2023/01/15 14:57:07;;;;;;;17.10;9.40;;;;;;;;;;4896710;29;20128;-76
2023/01/15 14:59:46;;;;;;;17.00;10.88;;;;;;;;;;4895394;29;20040;-75
2023/01/15 15:02:37;;;;;;;22.75;12.27;;;;;;;;;;4895235;29;20047;-75
2023/01/15 15:05:09;;;;;;;18.85;11.63;;;;;;;;;;4887318;29;20080;-75
2023/01/15 15:07:42;;;;;;;21.17;12.98;;;;;;;;;;4896708;29;20048;-75
2023/01/15 15:10:34;;;;;;;23.00;12.00;;;;;;;;;;4895145;29;20518;-74
2023/01/15 15:13:12;;;;;;;23.13;12.50;;;;;;;;;;4890733;29;20040;-74
2023/01/15 15:16:05;;;;;;;24.33;12.85;;;;;;;;;;4896631;29;20052;-76
2023/01/15 15:18:43;;;;;;;19.60;11.70;;;;;;;;;;4897017;29;20518;-74
2023/01/15 15:21:30;;;;;;;20.05;12.50;;;;;;;;;;4869453;29;20037;-75
2023/01/15 15:24:22;;;;;;;26.33;14.43;;;;;;;;;;4890380;29;20144;-75
2023/01/15 15:26:48;;;;;;;25.08;13.93;;;;;;;;;;4891605;29;20044;-75
2023/01/15 15:29:17;;;;;;;18.33;11.52;;;;;;;;;;4882587;29;20436;-75
2023/01/15 15:31:54;;;;;;;21.45;13.20;;;;;;;;;;4898899;29;20045;-75
2023/01/15 15:34:28;;;;;;;24.48;14.00;;;;;;;;;;4899408;29;20550;-75
2023/01/15 15:36:56;;;;;;;22.48;14.65;;;;;;;;;;4900635;29;20043;-74
2023/01/15 15:39:41;;;;;;;30.45;17.80;;;;;;;;;;4895310;29;20100;-74